Finnhawk — OJNL — position and weather

sailwx.info

Track history (hours):
 
Tides and Currents Weather Stations Pressure Air Temp Water Temp Dewpoint Dewpoint Depression Visibility Wind Speed Wind Dir Waves Ship Positions

Finnhawk

Last reported at 2015-May-26 14:03 UTC. Time now 2015-May-26 15:48 UTC.
Position N 60°13' E 025°12'.

Length 163 m; draft 6.2 m.

Type: Ship. MMSI: 230007000.

Date/timePositionNaut miles runAvg speedWind from/ knotsBaromVisibWave heightAir tempDewpointWater temp
2015-May-26 14:03N 60°13' E 025°12'1 2.5
2015-May-26 13:32N 60°12' E 025°13'3215.7
2015-May-26 11:28N 59°45' E 024°36'1718.6
2015-May-26 10:33N 59°41' E 024°04'1918.6
2015-May-26 09:33N 59°35' E 023°29'3818.7
2015-May-26 07:32N 59°19' E 022°22'1919.1
2015-May-26 06:33N 59°08' E 021°53'28418.9
2015-May-25 15:33N 55°45' E 015°44'1919.3
2015-May-25 14:33N 55°35' E 015°14'1919.5
2015-May-25 13:34N 55°26' E 014°44'1919.0
2015-May-25 12:34N 55°12' E 014°21'2218.3
2015-May-25 11:21N 55°11' E 013°42'1519.4
2015-May-25 10:34N 55°13' E 013°15'1919.0
2015-May-25 09:34N 55°17' E 012°43'1413.8
2015-May-25 08:34N 55°30' E 012°42'1312.6
2015-May-25 07:33N 55°43' E 012°41'1616.0
2015-May-25 06:33N 55°59' E 012°41'1717.4
2015-May-25 05:33N 56°13' E 012°23'1918.9
2015-May-25 04:33N 56°29' E 012°04'1919.1
2015-May-25 03:33N 56°47' E 011°50'2019.7
2015-May-25 02:33N 57°05' E 011°38'2019.6
2015-May-25 01:33N 57°24' E 011°26'1919.5
2015-May-25 00:33N 57°38' E 011°02'1717.5
2015-May-24 23:34N 57°46' E 010°32'15418.9
2015-May-24 15:24N 55°57' E 007°12'1619.2
2015-May-24 14:33N 55°43' E 006°58'1919.1
2015-May-24 13:33N 55°26' E 006°41'2519.3
2015-May-24 12:16N 55°05' E 006°18'5319.5
2015-May-24 09:33N 54°22' E 005°25'1919.4
2015-May-24 08:33N 54°05' E 005°08'2019.2
2015-May-24 07:32N 53°47' E 004°56'1919.0
2015-May-24 06:33N 53°30' E 004°44'1918.6
2015-May-24 05:33N 53°12' E 004°33'1818.2
2015-May-24 04:33N 52°57' E 004°18'1818.1
2015-May-24 03:33N 52°42' E 004°01'2418.0
2015-May-24 02:13N 52°23' E 003°36'1218.0
2015-May-24 01:33N 52°11' E 003°29'1717.5
2015-May-24 00:33N 51°55' E 003°21'1313.0
2015-May-23 23:33N 51°42' E 003°16'1616.4
2015-May-23 22:33N 51°28' E 003°31'1312.9
2015-May-23 21:34N 51°21' E 003°48'1514.9
2015-May-23 20:34N 51°24' E 004°11'9 8.8
2015-May-23 19:33N 51°16' E 004°17'0 0.4
2015-May-23 18:33N 51°16' E 004°16'2 2.3
2015-May-23 17:33N 51°17' E 004°13'0 0.0
2015-May-23 16:33N 51°17' E 004°13'0 0.0
2015-May-23 15:33N 51°17' E 004°13'0 0.0
2015-May-23 14:33N 51°17' E 004°13'0 0.0
2015-May-23 13:33N 51°17' E 004°13'0 0.0
2015-May-23 12:33N 51°17' E 004°13'0 0.0
2015-May-23 11:33N 51°17' E 004°13'0 0.0
2015-May-23 10:33N 51°17' E 004°13'0 0.0
2015-May-23 09:33N 51°17' E 004°13'0 0.0
2015-May-23 08:33N 51°17' E 004°13'0 0.0
2015-May-23 07:33N 51°17' E 004°13'0 0.0
2015-May-23 06:33N 51°17' E 004°13'0 0.0
2015-May-23 05:27N 51°17' E 004°13'0 0.0
2015-May-23 04:33N 51°17' E 004°13'0 0.0
2015-May-23 03:33N 51°17' E 004°13'0 0.0
2015-May-23 02:33N 51°17' E 004°13'0 0.0
2015-May-23 01:33N 51°17' E 004°13'0 0.4
2015-May-23 00:34N 51°17' E 004°14'2 2.0
2015-May-22 23:33N 51°16' E 004°17'2 2.1
2015-May-22 22:33N 51°18' E 004°17'7 6.9
2015-May-22 21:33N 51°23' E 004°10'8 7.7
2015-May-22 20:33N 51°24' E 003°57'10 9.6
2015-May-22 19:34N 51°25' E 003°42'8 8.3
2015-May-22 18:33N 51°29' E 003°30'1110.9
2015-May-22 17:33N 51°38' E 003°21'1010.1
2015-May-22 16:34N 51°48' E 003°19'2 1.8
2015-May-22 15:25N 51°48' E 003°22'0 0.0
2015-May-22 14:31N 51°48' E 003°22'0 0.1
2015-May-22 13:25N 51°48' E 003°22'0 0.0
2015-May-22 12:31N 51°48' E 003°22'0 0.0
2015-May-22 11:31N 51°48' E 003°22'0 0.0
2015-May-22 10:31N 51°48' E 003°22'0 0.1
2015-May-22 09:28N 51°48' E 003°22'0 0.0
2015-May-22 08:31N 51°48' E 003°22'0 0.0
2015-May-22 07:31N 51°48' E 003°22'0 0.0
2015-May-22 06:31N 51°48' E 003°22'0 0.0
2015-May-22 05:31N 51°48' E 003°22'5 5.1
2015-May-22 04:33N 51°53' E 003°20'1211.9
2015-May-22 03:33N 52°05' E 003°22'1414.0
2015-May-22 02:33N 52°17' E 003°34'1818.0
2015-May-22 01:33N 52°25' E 004°00'1818.0
2015-May-22 00:33N 52°29' E 004°29'5 4.5
2015-May-21 23:34N 52°28' E 004°36'7 6.9
2015-May-21 22:33N 52°26' E 004°47'2 2.4
2015-May-21 21:33N 52°24' E 004°50'0 0.0
2015-May-21 20:29N 52°24' E 004°50'0 0.0
2015-May-21 19:32N 52°24' E 004°50'0 0.0
2015-May-21 18:32N 52°24' E 004°50'0 0.0
2015-May-21 17:32N 52°24' E 004°50'0 0.0
2015-May-21 16:32N 52°24' E 004°50'2 1.7
2015-May-21 15:34N 52°25' E 004°49'8 8.1
2015-May-21 14:33N 52°28' E 004°36'5 5.3
2015-May-21 13:34N 52°28' E 004°27'1413.8
2015-May-21 12:33N 52°29' E 004°05'7217.7
2015-May-21 08:31N 51°51' E 002°25'1819.0
2015-May-21 07:33N 51°40' E 002°01'2019.6
2015-May-21 06:33N 51°29' E 001°35'1717.3
2015-May-21 05:33N 51°29' E 001°07'2120.9
2015-May-21 04:33N 51°30' E 000°34'9 8.7
2015-May-21 03:34N 51°27' E 000°21'1 0.6
2015-May-21 02:33N 51°27' E 000°21'0 0.0
2015-May-21 01:34N 51°27' E 000°21'0 0.0
2015-May-21 00:33N 51°27' E 000°21'0 0.0
2015-May-20 23:34N 51°27' E 000°21'0 0.0
2015-May-20 22:33N 51°27' E 000°21'0 0.0
2015-May-20 21:31N 51°27' E 000°21'0 0.0
2015-May-20 20:31N 51°27' E 000°21'0 0.0
2015-May-20 19:33N 51°27' E 000°21'0 0.0
2015-May-20 18:34N 51°27' E 000°21'0 0.0
2015-May-20 17:34N 51°27' E 000°21'0 0.0
2015-May-20 16:34N 51°27' E 000°21'0 0.0
2015-May-20 15:33N 51°27' E 000°21'0 0.2
2015-May-20 14:34N 51°27' E 000°21'1 0.6
2015-May-20 13:34N 51°27' E 000°22'9 9.1
2015-May-20 12:33N 51°30' E 000°35'1414.1
2015-May-20 11:33N 51°29' E 000°58'1212.3
2015-May-20 10:34N 51°29' E 001°18'10 9.8
2015-May-20 09:33N 51°28' E 001°33'1414.1
2015-May-20 08:33N 51°40' E 001°45'1514.7
2015-May-20 07:33N 51°55' E 001°45'1313.5
2015-May-20 06:33N 52°08' E 001°50'1313.5
2015-May-20 05:33N 52°21' E 001°55'1313.4
2015-May-20 04:34N 52°34' E 001°60'1111.4
2015-May-20 03:33N 52°46' E 001°57'1211.7
2015-May-20 02:33N 52°52' E 001°41'1212.2
2015-May-20 01:33N 52°58' E 001°24'1313.0
2015-May-20 00:33N 53°03' E 001°04'2713.3
2015-May-19 22:32N 53°23' E 000°34'1313.0
2015-May-19 21:34N 53°32' E 000°19'1616.2
2015-May-19 20:33N 53°37' W 000°07'3 2.9
2015-May-19 19:33N 53°38' W 000°12'0 0.0
2015-May-19 18:32N 53°38' W 000°12'0 0.0
2015-May-19 17:32N 53°38' W 000°12'0 0.0
2015-May-19 16:32N 53°38' W 000°12'0 0.0
2015-May-19 15:32N 53°38' W 000°12'0 0.2
2015-May-19 14:33N 53°38' W 000°12'0 0.5
2015-May-19 13:33N 53°38' W 000°11'1 0.8
2015-May-19 12:34N 53°38' W 000°10'1211.8
2015-May-19 11:33N 53°34' E 000°09'10 9.7
2015-May-19 10:33N 53°39' E 000°22'1514.8
2015-May-19 09:32N 53°47' E 000°44'40316.0
2015-May-18 08:19N 57°46' E 010°20'1317.3
2015-May-18 07:33N 57°48' E 010°45'1817.6
2015-May-18 06:34N 57°37' E 011°10'1717.2
2015-May-18 05:34N 57°23' E 011°30'1717.2
2015-May-18 04:33N 57°07' E 011°40'1716.9
2015-May-18 03:33N 56°51' E 011°51'1717.1
2015-May-18 02:33N 56°35' E 011°60'1616.5
2015-May-18 01:33N 56°21' E 012°15'1716.6
2015-May-18 00:34N 56°07' E 012°32'1515.4
2015-May-17 23:34N 55°53' E 012°44'1514.9
2015-May-17 22:33N 55°39' E 012°42'1212.2
2015-May-17 21:34N 55°26' E 012°41'1312.6
2015-May-17 20:34N 55°16' E 012°53'1717.2
2015-May-17 19:33N 55°15' E 013°23'2717.7
2015-May-17 18:03N 55°14' E 014°10'816.9
2015-May-17 17:33N 55°18' E 014°22'1817.6
2015-May-17 16:33N 55°31' E 014°44'1917.1
2015-May-17 15:27N 55°40' E 015°13'11716.8
2015-May-17 08:29N 57°10' E 017°28'23318.0
2015-May-16 19:33N 59°37' E 023°13'2518.3
2015-May-16 18:12N 59°45' E 023°60'1218.1
2015-May-16 17:33N 59°48' E 024°22'1817.7
2015-May-16 16:32N 59°55' E 024°55'  
Track history (hours):
 
Tides and Currents Weather Stations Pressure Air Temp Water Temp Dewpoint Dewpoint Depression Visibility Wind Speed Wind Dir Waves Ship Positions

Finnhawk

Last reported at 2015-May-26 14:03 UTC. Time now 2015-May-26 15:48 UTC.
Position N 60°13' E 025°12'.

Length 163 m; draft 6.2 m.

Type: Ship. MMSI: 230007000.

Date/timePositionNaut miles runAvg speedWind from/ knotsBaromVisibWave heightAir tempDewpointWater temp
2015-May-26 14:03N 60°13' E 025°12'1 2.5
2015-May-26 13:32N 60°12' E 025°13'3215.7
2015-May-26 11:28N 59°45' E 024°36'1718.6
2015-May-26 10:33N 59°41' E 024°04'1918.6
2015-May-26 09:33N 59°35' E 023°29'3818.7
2015-May-26 07:32N 59°19' E 022°22'1919.1
2015-May-26 06:33N 59°08' E 021°53'28418.9
2015-May-25 15:33N 55°45' E 015°44'1919.3
2015-May-25 14:33N 55°35' E 015°14'1919.5
2015-May-25 13:34N 55°26' E 014°44'1919.0
2015-May-25 12:34N 55°12' E 014°21'2218.3
2015-May-25 11:21N 55°11' E 013°42'1519.4
2015-May-25 10:34N 55°13' E 013°15'1919.0
2015-May-25 09:34N 55°17' E 012°43'1413.8
2015-May-25 08:34N 55°30' E 012°42'1312.6
2015-May-25 07:33N 55°43' E 012°41'1616.0
2015-May-25 06:33N 55°59' E 012°41'1717.4
2015-May-25 05:33N 56°13' E 012°23'1918.9
2015-May-25 04:33N 56°29' E 012°04'1919.1
2015-May-25 03:33N 56°47' E 011°50'2019.7
2015-May-25 02:33N 57°05' E 011°38'2019.6
2015-May-25 01:33N 57°24' E 011°26'1919.5
2015-May-25 00:33N 57°38' E 011°02'1717.5
2015-May-24 23:34N 57°46' E 010°32'15418.9
2015-May-24 15:24N 55°57' E 007°12'1619.2
2015-May-24 14:33N 55°43' E 006°58'1919.1
2015-May-24 13:33N 55°26' E 006°41'2519.3
2015-May-24 12:16N 55°05' E 006°18'5319.5
2015-May-24 09:33N 54°22' E 005°25'1919.4
2015-May-24 08:33N 54°05' E 005°08'2019.2
2015-May-24 07:32N 53°47' E 004°56'1919.0
2015-May-24 06:33N 53°30' E 004°44'1918.6
2015-May-24 05:33N 53°12' E 004°33'1818.2
2015-May-24 04:33N 52°57' E 004°18'1818.1
2015-May-24 03:33N 52°42' E 004°01'2418.0
2015-May-24 02:13N 52°23' E 003°36'1218.0
2015-May-24 01:33N 52°11' E 003°29'1717.5
2015-May-24 00:33N 51°55' E 003°21'1313.0
2015-May-23 23:33N 51°42' E 003°16'1616.4
2015-May-23 22:33N 51°28' E 003°31'1312.9
2015-May-23 21:34N 51°21' E 003°48'1514.9
2015-May-23 20:34N 51°24' E 004°11'9 8.8
2015-May-23 19:33N 51°16' E 004°17'0 0.4
2015-May-23 18:33N 51°16' E 004°16'2 2.3
2015-May-23 17:33N 51°17' E 004°13'0 0.0
2015-May-23 16:33N 51°17' E 004°13'0 0.0
2015-May-23 15:33N 51°17' E 004°13'0 0.0
2015-May-23 14:33N 51°17' E 004°13'0 0.0
2015-May-23 13:33N 51°17' E 004°13'0 0.0
2015-May-23 12:33N 51°17' E 004°13'0 0.0
2015-May-23 11:33N 51°17' E 004°13'0 0.0
2015-May-23 10:33N 51°17' E 004°13'0 0.0
2015-May-23 09:33N 51°17' E 004°13'0 0.0
2015-May-23 08:33N 51°17' E 004°13'0 0.0
2015-May-23 07:33N 51°17' E 004°13'0 0.0
2015-May-23 06:33N 51°17' E 004°13'0 0.0
2015-May-23 05:27N 51°17' E 004°13'0 0.0
2015-May-23 04:33N 51°17' E 004°13'0 0.0
2015-May-23 03:33N 51°17' E 004°13'0 0.0
2015-May-23 02:33N 51°17' E 004°13'0 0.0
2015-May-23 01:33N 51°17' E 004°13'0 0.4
2015-May-23 00:34N 51°17' E 004°14'2 2.0
2015-May-22 23:33N 51°16' E 004°17'2 2.1
2015-May-22 22:33N 51°18' E 004°17'7 6.9
2015-May-22 21:33N 51°23' E 004°10'8 7.7
2015-May-22 20:33N 51°24' E 003°57'10 9.6
2015-May-22 19:34N 51°25' E 003°42'8 8.3
2015-May-22 18:33N 51°29' E 003°30'1110.9
2015-May-22 17:33N 51°38' E 003°21'1010.1
2015-May-22 16:34N 51°48' E 003°19'2 1.8
2015-May-22 15:25N 51°48' E 003°22'0 0.0
2015-May-22 14:31N 51°48' E 003°22'0 0.1
2015-May-22 13:25N 51°48' E 003°22'0 0.0
2015-May-22 12:31N 51°48' E 003°22'0 0.0
2015-May-22 11:31N 51°48' E 003°22'0 0.0
2015-May-22 10:31N 51°48' E 003°22'0 0.1
2015-May-22 09:28N 51°48' E 003°22'0 0.0
2015-May-22 08:31N 51°48' E 003°22'0 0.0
2015-May-22 07:31N 51°48' E 003°22'0 0.0
2015-May-22 06:31N 51°48' E 003°22'0 0.0
2015-May-22 05:31N 51°48' E 003°22'5 5.1
2015-May-22 04:33N 51°53' E 003°20'1211.9
2015-May-22 03:33N 52°05' E 003°22'1414.0
2015-May-22 02:33N 52°17' E 003°34'1818.0
2015-May-22 01:33N 52°25' E 004°00'1818.0
2015-May-22 00:33N 52°29' E 004°29'5 4.5
2015-May-21 23:34N 52°28' E 004°36'7 6.9
2015-May-21 22:33N 52°26' E 004°47'2 2.4
2015-May-21 21:33N 52°24' E 004°50'0 0.0
2015-May-21 20:29N 52°24' E 004°50'0 0.0
2015-May-21 19:32N 52°24' E 004°50'0 0.0
2015-May-21 18:32N 52°24' E 004°50'0 0.0
2015-May-21 17:32N 52°24' E 004°50'0 0.0
2015-May-21 16:32N 52°24' E 004°50'2 1.7
2015-May-21 15:34N 52°25' E 004°49'8 8.1
2015-May-21 14:33N 52°28' E 004°36'5 5.3
2015-May-21 13:34N 52°28' E 004°27'1413.8
2015-May-21 12:33N 52°29' E 004°05'7217.7
2015-May-21 08:31N 51°51' E 002°25'1819.0
2015-May-21 07:33N 51°40' E 002°01'2019.6
2015-May-21 06:33N 51°29' E 001°35'1717.3
2015-May-21 05:33N 51°29' E 001°07'2120.9
2015-May-21 04:33N 51°30' E 000°34'9 8.7
2015-May-21 03:34N 51°27' E 000°21'1 0.6
2015-May-21 02:33N 51°27' E 000°21'0 0.0
2015-May-21 01:34N 51°27' E 000°21'0 0.0
2015-May-21 00:33N 51°27' E 000°21'0 0.0
2015-May-20 23:34N 51°27' E 000°21'0 0.0
2015-May-20 22:33N 51°27' E 000°21'0 0.0
2015-May-20 21:31N 51°27' E 000°21'0 0.0
2015-May-20 20:31N 51°27' E 000°21'0 0.0
2015-May-20 19:33N 51°27' E 000°21'0 0.0
2015-May-20 18:34N 51°27' E 000°21'0 0.0
2015-May-20 17:34N 51°27' E 000°21'0 0.0
2015-May-20 16:34N 51°27' E 000°21'0 0.0
2015-May-20 15:33N 51°27' E 000°21'0 0.2
2015-May-20 14:34N 51°27' E 000°21'1 0.6
2015-May-20 13:34N 51°27' E 000°22'9 9.1
2015-May-20 12:33N 51°30' E 000°35'1414.1
2015-May-20 11:33N 51°29' E 000°58'1212.3
2015-May-20 10:34N 51°29' E 001°18'10 9.8
2015-May-20 09:33N 51°28' E 001°33'1414.1
2015-May-20 08:33N 51°40' E 001°45'1514.7
2015-May-20 07:33N 51°55' E 001°45'1313.5
2015-May-20 06:33N 52°08' E 001°50'1313.5
2015-May-20 05:33N 52°21' E 001°55'1313.4
2015-May-20 04:34N 52°34' E 001°60'1111.4
2015-May-20 03:33N 52°46' E 001°57'1211.7
2015-May-20 02:33N 52°52' E 001°41'1212.2
2015-May-20 01:33N 52°58' E 001°24'1313.0
2015-May-20 00:33N 53°03' E 001°04'2713.3
2015-May-19 22:32N 53°23' E 000°34'1313.0
2015-May-19 21:34N 53°32' E 000°19'1616.2
2015-May-19 20:33N 53°37' W 000°07'3 2.9
2015-May-19 19:33N 53°38' W 000°12'0 0.0
2015-May-19 18:32N 53°38' W 000°12'0 0.0
2015-May-19 17:32N 53°38' W 000°12'0 0.0
2015-May-19 16:32N 53°38' W 000°12'0 0.0
2015-May-19 15:32N 53°38' W 000°12'0 0.2
2015-May-19 14:33N 53°38' W 000°12'0 0.5
2015-May-19 13:33N 53°38' W 000°11'1 0.8
2015-May-19 12:34N 53°38' W 000°10'1211.8
2015-May-19 11:33N 53°34' E 000°09'10 9.7
2015-May-19 10:33N 53°39' E 000°22'1514.8
2015-May-19 09:32N 53°47' E 000°44'40316.0
2015-May-18 08:19N 57°46' E 010°20'1317.3
2015-May-18 07:33N 57°48' E 010°45'1817.6
2015-May-18 06:34N 57°37' E 011°10'1717.2
2015-May-18 05:34N 57°23' E 011°30'1717.2
2015-May-18 04:33N 57°07' E 011°40'1716.9
2015-May-18 03:33N 56°51' E 011°51'1717.1
2015-May-18 02:33N 56°35' E 011°60'1616.5
2015-May-18 01:33N 56°21' E 012°15'1716.6
2015-May-18 00:34N 56°07' E 012°32'1515.4
2015-May-17 23:34N 55°53' E 012°44'1514.9
2015-May-17 22:33N 55°39' E 012°42'1212.2
2015-May-17 21:34N 55°26' E 012°41'1312.6
2015-May-17 20:34N 55°16' E 012°53'1717.2
2015-May-17 19:33N 55°15' E 013°23'2717.7
2015-May-17 18:03N 55°14' E 014°10'816.9
2015-May-17 17:33N 55°18' E 014°22'1817.6
2015-May-17 16:33N 55°31' E 014°44'1917.1
2015-May-17 15:27N 55°40' E 015°13'11716.8
2015-May-17 08:29N 57°10' E 017°28'23318.0
2015-May-16 19:33N 59°37' E 023°13'2518.3
2015-May-16 18:12N 59°45' E 023°60'1218.1
2015-May-16 17:33N 59°48' E 024°22'1817.7
2015-May-16 16:32N 59°55' E 024°55'  

Dump ship's entire track history